sensor_id;sensor_type;location;lat;lon;timestamp;P1;durP1;ratioP1;P2;durP2;ratioP2
48526;SDS011;34317;51.660;5.824;2023-03-12T00:00:03;6.95;;;1.80;;
48526;SDS011;34317;51.660;5.824;2023-03-12T00:02:34;4.00;;;1.70;;
48526;SDS011;34317;51.660;5.824;2023-03-12T00:05:02;6.80;;;2.22;;
48526;SDS011;34317;51.660;5.824;2023-03-12T00:07:29;3.63;;;1.73;;
48526;SDS011;34317;51.660;5.824;2023-03-12T00:09:56;4.13;;;1.83;;
48526;SDS011;34317;51.660;5.824;2023-03-12T00:12:23;5.65;;;1.98;;
48526;SDS011;34317;51.660;5.824;2023-03-12T00:14:50;5.45;;;1.88;;
48526;SDS011;34317;51.660;5.824;2023-03-12T00:17:17;5.40;;;1.70;;
48526;SDS011;34317;51.660;5.824;2023-03-12T00:19:44;4.65;;;2.00;;
48526;SDS011;34317;51.660;5.824;2023-03-12T00:22:12;3.80;;;1.90;;
48526;SDS011;34317;51.660;5.824;2023-03-12T00:24:39;5.30;;;2.03;;
48526;SDS011;34317;51.660;5.824;2023-03-12T00:27:06;5.88;;;1.90;;
48526;SDS011;34317;51.660;5.824;2023-03-12T00:29:34;5.13;;;2.00;;
48526;SDS011;34317;51.660;5.824;2023-03-12T00:32:01;10.43;;;2.00;;
48526;SDS011;34317;51.660;5.824;2023-03-12T00:34:28;4.55;;;1.70;;
48526;SDS011;34317;51.660;5.824;2023-03-12T00:36:55;5.55;;;1.85;;
48526;SDS011;34317;51.660;5.824;2023-03-12T00:39:22;6.60;;;1.90;;
48526;SDS011;34317;51.660;5.824;2023-03-12T00:41:49;7.15;;;1.90;;
48526;SDS011;34317;51.660;5.824;2023-03-12T00:44:17;4.65;;;1.70;;
48526;SDS011;34317;51.660;5.824;2023-03-12T00:46:44;4.20;;;1.60;;
48526;SDS011;34317;51.660;5.824;2023-03-12T00:49:12;4.07;;;1.60;;
48526;SDS011;34317;51.660;5.824;2023-03-12T00:51:39;4.35;;;1.40;;
48526;SDS011;34317;51.660;5.824;2023-03-12T00:54:06;3.42;;;1.70;;
48526;SDS011;34317;51.660;5.824;2023-03-12T00:56:33;4.65;;;1.45;;
48526;SDS011;34317;51.660;5.824;2023-03-12T00:59:00;4.60;;;1.70;;
48526;SDS011;34317;51.660;5.824;2023-03-12T01:01:27;2.40;;;1.58;;
48526;SDS011;34317;51.660;5.824;2023-03-12T01:03:54;4.45;;;1.50;;
48526;SDS011;34317;51.660;5.824;2023-03-12T01:06:24;5.93;;;1.42;;
48526;SDS011;34317;51.660;5.824;2023-03-12T01:08:51;5.78;;;1.65;;
48526;SDS011;34317;51.660;5.824;2023-03-12T01:11:20;3.28;;;1.50;;
48526;SDS011;34317;51.660;5.824;2023-03-12T01:13:48;3.50;;;1.75;;
48526;SDS011;34317;51.660;5.824;2023-03-12T01:16:16;5.63;;;2.10;;
48526;SDS011;34317;51.660;5.824;2023-03-12T01:18:43;5.40;;;1.65;;
48526;SDS011;34317;51.660;5.824;2023-03-12T01:21:11;5.28;;;1.60;;
48526;SDS011;34317;51.660;5.824;2023-03-12T01:23:39;3.63;;;1.63;;
48526;SDS011;34317;51.660;5.824;2023-03-12T01:26:06;5.03;;;1.70;;
48526;SDS011;34317;51.660;5.824;2023-03-12T01:28:33;4.68;;;1.65;;
48526;SDS011;34317;51.660;5.824;2023-03-12T01:31:10;6.75;;;1.60;;
48526;SDS011;34317;51.660;5.824;2023-03-12T01:33:40;5.28;;;1.67;;
48526;SDS011;34317;51.660;5.824;2023-03-12T01:36:18;5.30;;;1.85;;
48526;SDS011;34317;51.660;5.824;2023-03-12T01:38:49;3.05;;;1.75;;
48526;SDS011;34317;51.660;5.824;2023-03-12T01:41:22;3.37;;;1.60;;
48526;SDS011;34317;51.660;5.824;2023-03-12T01:43:52;6.75;;;1.92;;
48526;SDS011;34317;51.660;5.824;2023-03-12T01:51:47;5.88;;;1.65;;
48526;SDS011;34317;51.660;5.824;2023-03-12T01:54:20;4.43;;;1.40;;
48526;SDS011;34317;51.660;5.824;2023-03-12T01:56:50;4.30;;;2.03;;
48526;SDS011;34317;51.660;5.824;2023-03-12T02:00:07;5.28;;;1.95;;
48526;SDS011;34317;51.660;5.824;2023-03-12T02:02:13;3.90;;;1.50;;
48526;SDS011;34317;51.660;5.824;2023-03-12T02:04:41;3.97;;;1.55;;
48526;SDS011;34317;51.660;5.824;2023-03-12T02:07:11;3.83;;;1.63;;
48526;SDS011;34317;51.660;5.824;2023-03-12T02:09:42;4.55;;;1.77;;
48526;SDS011;34317;51.660;5.824;2023-03-12T02:12:15;5.18;;;1.80;;
48526;SDS011;34317;51.660;5.824;2023-03-12T02:14:43;4.78;;;1.90;;
48526;SDS011;34317;51.660;5.824;2023-03-12T02:17:10;6.18;;;1.98;;
48526;SDS011;34317;51.660;5.824;2023-03-12T02:19:59;5.38;;;2.00;;
48526;SDS011;34317;51.660;5.824;2023-03-12T02:22:40;4.13;;;1.92;;
48526;SDS011;34317;51.660;5.824;2023-03-12T02:25:20;6.10;;;2.03;;
48526;SDS011;34317;51.660;5.824;2023-03-12T02:27:57;4.95;;;1.83;;
48526;SDS011;34317;51.660;5.824;2023-03-12T02:30:27;4.10;;;2.03;;
48526;SDS011;34317;51.660;5.824;2023-03-12T02:33:00;6.60;;;2.25;;
48526;SDS011;34317;51.660;5.824;2023-03-12T02:35:31;3.73;;;2.07;;
48526;SDS011;34317;51.660;5.824;2023-03-12T02:37:58;4.88;;;2.00;;
48526;SDS011;34317;51.660;5.824;2023-03-12T02:43:08;4.50;;;2.00;;
48526;SDS011;34317;51.660;5.824;2023-03-12T02:45:36;4.05;;;1.90;;
48526;SDS011;34317;51.660;5.824;2023-03-12T02:48:05;6.57;;;2.25;;
48526;SDS011;34317;51.660;5.824;2023-03-12T02:50:34;3.63;;;1.83;;
48526;SDS011;34317;51.660;5.824;2023-03-12T02:53:02;5.28;;;1.80;;
48526;SDS011;34317;51.660;5.824;2023-03-12T02:55:30;5.28;;;2.17;;
48526;SDS011;34317;51.660;5.824;2023-03-12T02:57:57;4.28;;;1.80;;
48526;SDS011;34317;51.660;5.824;2023-03-12T03:00:24;5.45;;;2.08;;
48526;SDS011;34317;51.660;5.824;2023-03-12T03:02:53;4.90;;;2.15;;
48526;SDS011;34317;51.660;5.824;2023-03-12T03:05:20;5.07;;;1.95;;
48526;SDS011;34317;51.660;5.824;2023-03-12T03:07:47;4.53;;;2.20;;
48526;SDS011;34317;51.660;5.824;2023-03-12T03:10:15;4.55;;;2.20;;
48526;SDS011;34317;51.660;5.824;2023-03-12T03:12:43;5.80;;;1.95;;
48526;SDS011;34317;51.660;5.824;2023-03-12T03:15:10;3.72;;;1.92;;
48526;SDS011;34317;51.660;5.824;2023-03-12T03:17:39;4.35;;;2.17;;
48526;SDS011;34317;51.660;5.824;2023-03-12T03:20:06;5.90;;;1.98;;
48526;SDS011;34317;51.660;5.824;2023-03-12T03:22:37;5.15;;;2.20;;
48526;SDS011;34317;51.660;5.824;2023-03-12T03:25:05;8.48;;;2.35;;
48526;SDS011;34317;51.660;5.824;2023-03-12T03:27:34;5.00;;;2.03;;
48526;SDS011;34317;51.660;5.824;2023-03-12T03:30:01;4.25;;;2.15;;
48526;SDS011;34317;51.660;5.824;2023-03-12T03:32:31;3.67;;;1.92;;
48526;SDS011;34317;51.660;5.824;2023-03-12T03:34:59;4.47;;;2.10;;
48526;SDS011;34317;51.660;5.824;2023-03-12T03:37:26;3.60;;;2.10;;
48526;SDS011;34317;51.660;5.824;2023-03-12T03:39:53;4.70;;;2.20;;
48526;SDS011;34317;51.660;5.824;2023-03-12T03:42:21;5.10;;;1.83;;
48526;SDS011;34317;51.660;5.824;2023-03-12T03:44:48;5.07;;;2.10;;
48526;SDS011;34317;51.660;5.824;2023-03-12T03:47:15;6.03;;;2.50;;
48526;SDS011;34317;51.660;5.824;2023-03-12T03:49:42;5.32;;;2.10;;
48526;SDS011;34317;51.660;5.824;2023-03-12T03:52:10;5.07;;;2.28;;
48526;SDS011;34317;51.660;5.824;2023-03-12T03:54:38;4.30;;;2.25;;
48526;SDS011;34317;51.660;5.824;2023-03-12T03:57:06;6.18;;;2.00;;
48526;SDS011;34317;51.660;5.824;2023-03-12T03:59:33;4.25;;;2.38;;
48526;SDS011;34317;51.660;5.824;2023-03-12T04:02:01;6.13;;;2.10;;
48526;SDS011;34317;51.660;5.824;2023-03-12T04:04:30;6.68;;;2.25;;
48526;SDS011;34317;51.660;5.824;2023-03-12T04:06:58;4.35;;;2.30;;
48526;SDS011;34317;51.660;5.824;2023-03-12T04:09:25;5.40;;;2.50;;
48526;SDS011;34317;51.660;5.824;2023-03-12T04:11:52;7.03;;;2.50;;
48526;SDS011;34317;51.660;5.824;2023-03-12T04:14:19;5.15;;;2.20;;
48526;SDS011;34317;51.660;5.824;2023-03-12T04:16:47;5.85;;;2.28;;
48526;SDS011;34317;51.660;5.824;2023-03-12T04:19:14;4.32;;;2.40;;
48526;SDS011;34317;51.660;5.824;2023-03-12T04:21:41;6.40;;;2.00;;
48526;SDS011;34317;51.660;5.824;2023-03-12T04:24:12;4.70;;;2.30;;
48526;SDS011;34317;51.660;5.824;2023-03-12T04:26:42;4.30;;;1.92;;
48526;SDS011;34317;51.660;5.824;2023-03-12T04:29:09;4.45;;;1.90;;
48526;SDS011;34317;51.660;5.824;2023-03-12T04:31:37;5.60;;;2.20;;
48526;SDS011;34317;51.660;5.824;2023-03-12T04:34:04;4.38;;;2.40;;
48526;SDS011;34317;51.660;5.824;2023-03-12T04:36:31;5.30;;;2.42;;
48526;SDS011;34317;51.660;5.824;2023-03-12T04:38:59;5.55;;;2.33;;
48526;SDS011;34317;51.660;5.824;2023-03-12T04:41:31;7.28;;;2.75;;
48526;SDS011;34317;51.660;5.824;2023-03-12T04:44:06;6.95;;;2.33;;
48526;SDS011;34317;51.660;5.824;2023-03-12T04:46:36;6.25;;;2.65;;
48526;SDS011;34317;51.660;5.824;2023-03-12T04:49:03;6.15;;;2.30;;
48526;SDS011;34317;51.660;5.824;2023-03-12T04:51:33;6.68;;;2.53;;
48526;SDS011;34317;51.660;5.824;2023-03-12T04:54:02;4.95;;;2.28;;
48526;SDS011;34317;51.660;5.824;2023-03-12T04:56:29;4.65;;;2.50;;
48526;SDS011;34317;51.660;5.824;2023-03-12T04:58:57;3.58;;;2.08;;
48526;SDS011;34317;51.660;5.824;2023-03-12T05:01:30;5.60;;;2.10;;
48526;SDS011;34317;51.660;5.824;2023-03-12T05:04:02;4.60;;;2.40;;
48526;SDS011;34317;51.660;5.824;2023-03-12T05:06:29;4.72;;;2.22;;
48526;SDS011;34317;51.660;5.824;2023-03-12T05:08:57;4.72;;;2.58;;
48526;SDS011;34317;51.660;5.824;2023-03-12T05:11:24;5.88;;;2.40;;
48526;SDS011;34317;51.660;5.824;2023-03-12T05:13:51;5.88;;;2.55;;
48526;SDS011;34317;51.660;5.824;2023-03-12T05:16:19;7.03;;;2.38;;
48526;SDS011;34317;51.660;5.824;2023-03-12T05:18:47;6.63;;;2.40;;
48526;SDS011;34317;51.660;5.824;2023-03-12T05:21:21;3.63;;;1.98;;
48526;SDS011;34317;51.660;5.824;2023-03-12T05:23:51;6.00;;;2.60;;
48526;SDS011;34317;51.660;5.824;2023-03-12T05:28:54;4.03;;;2.05;;
48526;SDS011;34317;51.660;5.824;2023-03-12T05:31:23;3.60;;;2.38;;
48526;SDS011;34317;51.660;5.824;2023-03-12T05:33:50;4.03;;;2.20;;
48526;SDS011;34317;51.660;5.824;2023-03-12T05:36:20;6.07;;;2.35;;
48526;SDS011;34317;51.660;5.824;2023-03-12T05:38:48;5.35;;;1.98;;
48526;SDS011;34317;51.660;5.824;2023-03-12T05:41:21;6.07;;;2.28;;
48526;SDS011;34317;51.660;5.824;2023-03-12T05:46:19;5.85;;;2.10;;
48526;SDS011;34317;51.660;5.824;2023-03-12T05:48:47;6.15;;;2.17;;
48526;SDS011;34317;51.660;5.824;2023-03-12T05:51:15;4.82;;;2.00;;
48526;SDS011;34317;51.660;5.824;2023-03-12T05:53:42;16.27;;;2.50;;
48526;SDS011;34317;51.660;5.824;2023-03-12T05:56:11;5.13;;;2.60;;
48526;SDS011;34317;51.660;5.824;2023-03-12T05:58:41;4.57;;;1.95;;
48526;SDS011;34317;51.660;5.824;2023-03-12T06:01:13;7.82;;;2.10;;
48526;SDS011;34317;51.660;5.824;2023-03-12T06:03:42;5.43;;;1.83;;
48526;SDS011;34317;51.660;5.824;2023-03-12T06:06:10;6.65;;;2.00;;
48526;SDS011;34317;51.660;5.824;2023-03-12T06:08:38;4.57;;;2.05;;
48526;SDS011;34317;51.660;5.824;2023-03-12T06:11:06;6.75;;;2.58;;
48526;SDS011;34317;51.660;5.824;2023-03-12T06:13:34;6.03;;;2.33;;
48526;SDS011;34317;51.660;5.824;2023-03-12T06:16:05;4.68;;;2.17;;
48526;SDS011;34317;51.660;5.824;2023-03-12T06:18:35;6.70;;;2.00;;
48526;SDS011;34317;51.660;5.824;2023-03-12T06:21:23;5.40;;;2.22;;
48526;SDS011;34317;51.660;5.824;2023-03-12T06:23:52;5.53;;;1.80;;
48526;SDS011;34317;51.660;5.824;2023-03-12T06:26:25;8.77;;;2.53;;
48526;SDS011;34317;51.660;5.824;2023-03-12T06:28:53;6.85;;;2.33;;
48526;SDS011;34317;51.660;5.824;2023-03-12T06:31:21;9.55;;;2.10;;
48526;SDS011;34317;51.660;5.824;2023-03-12T06:33:49;5.53;;;2.20;;
48526;SDS011;34317;51.660;5.824;2023-03-12T06:36:17;6.03;;;2.00;;
48526;SDS011;34317;51.660;5.824;2023-03-12T06:38:44;7.75;;;2.30;;
48526;SDS011;34317;51.660;5.824;2023-03-12T06:41:12;3.17;;;1.95;;
48526;SDS011;34317;51.660;5.824;2023-03-12T06:43:41;5.90;;;2.42;;
48526;SDS011;34317;51.660;5.824;2023-03-12T06:46:13;5.82;;;2.22;;
48526;SDS011;34317;51.660;5.824;2023-03-12T06:48:43;9.45;;;2.10;;
48526;SDS011;34317;51.660;5.824;2023-03-12T06:51:12;5.32;;;2.00;;
48526;SDS011;34317;51.660;5.824;2023-03-12T06:53:41;4.60;;;2.30;;
48526;SDS011;34317;51.660;5.824;2023-03-12T06:56:08;5.47;;;2.20;;
48526;SDS011;34317;51.660;5.824;2023-03-12T06:58:36;6.68;;;2.38;;
48526;SDS011;34317;51.660;5.824;2023-03-12T07:01:04;5.80;;;2.80;;
48526;SDS011;34317;51.660;5.824;2023-03-12T07:03:31;5.53;;;2.40;;
48526;SDS011;34317;51.660;5.824;2023-03-12T07:05:59;8.82;;;2.20;;
48526;SDS011;34317;51.660;5.824;2023-03-12T07:08:27;4.50;;;2.25;;
48526;SDS011;34317;51.660;5.824;2023-03-12T07:10:57;5.38;;;2.80;;
48526;SDS011;34317;51.660;5.824;2023-03-12T07:13:28;4.68;;;2.42;;
48526;SDS011;34317;51.660;5.824;2023-03-12T07:15:55;9.43;;;2.40;;
48526;SDS011;34317;51.660;5.824;2023-03-12T07:18:23;4.95;;;2.30;;
48526;SDS011;34317;51.660;5.824;2023-03-12T07:20:50;6.68;;;2.53;;
48526;SDS011;34317;51.660;5.824;2023-03-12T07:23:18;4.55;;;2.38;;
48526;SDS011;34317;51.660;5.824;2023-03-12T07:25:46;4.45;;;2.00;;
48526;SDS011;34317;51.660;5.824;2023-03-12T07:28:13;5.95;;;2.45;;
48526;SDS011;34317;51.660;5.824;2023-03-12T07:30:41;6.78;;;2.50;;
48526;SDS011;34317;51.660;5.824;2023-03-12T07:33:10;4.50;;;2.35;;
48526;SDS011;34317;51.660;5.824;2023-03-12T07:35:38;5.82;;;2.53;;
48526;SDS011;34317;51.660;5.824;2023-03-12T07:38:06;5.65;;;2.53;;
48526;SDS011;34317;51.660;5.824;2023-03-12T07:40:34;5.18;;;2.35;;
48526;SDS011;34317;51.660;5.824;2023-03-12T07:43:02;7.93;;;2.58;;
48526;SDS011;34317;51.660;5.824;2023-03-12T07:45:34;5.53;;;2.72;;
48526;SDS011;34317;51.660;5.824;2023-03-12T07:48:01;6.65;;;2.70;;
48526;SDS011;34317;51.660;5.824;2023-03-12T07:50:29;5.05;;;2.40;;
48526;SDS011;34317;51.660;5.824;2023-03-12T07:52:56;5.38;;;2.45;;
48526;SDS011;34317;51.660;5.824;2023-03-12T07:55:24;5.32;;;2.35;;
48526;SDS011;34317;51.660;5.824;2023-03-12T07:57:51;6.57;;;2.92;;
48526;SDS011;34317;51.660;5.824;2023-03-12T08:00:19;5.20;;;2.47;;
48526;SDS011;34317;51.660;5.824;2023-03-12T08:02:46;5.75;;;2.58;;
48526;SDS011;34317;51.660;5.824;2023-03-12T08:05:14;6.13;;;2.53;;
48526;SDS011;34317;51.660;5.824;2023-03-12T08:07:41;4.50;;;2.65;;
48526;SDS011;34317;51.660;5.824;2023-03-12T08:10:08;7.72;;;2.67;;
48526;SDS011;34317;51.660;5.824;2023-03-12T08:12:37;6.72;;;2.78;;
48526;SDS011;34317;51.660;5.824;2023-03-12T08:15:04;4.25;;;2.33;;
48526;SDS011;34317;51.660;5.824;2023-03-12T08:17:32;5.63;;;3.00;;
48526;SDS011;34317;51.660;5.824;2023-03-12T08:19:59;7.13;;;3.03;;
48526;SDS011;34317;51.660;5.824;2023-03-12T08:22:26;5.65;;;3.22;;
48526;SDS011;34317;51.660;5.824;2023-03-12T08:24:53;6.97;;;3.20;;
48526;SDS011;34317;51.660;5.824;2023-03-12T08:27:20;6.30;;;2.78;;
48526;SDS011;34317;51.660;5.824;2023-03-12T08:29:47;6.95;;;3.00;;
48526;SDS011;34317;51.660;5.824;2023-03-12T08:32:15;5.45;;;2.78;;
48526;SDS011;34317;51.660;5.824;2023-03-12T08:34:42;5.10;;;2.95;;
48526;SDS011;34317;51.660;5.824;2023-03-12T08:37:09;5.50;;;2.55;;
48526;SDS011;34317;51.660;5.824;2023-03-12T08:39:36;4.70;;;2.70;;
48526;SDS011;34317;51.660;5.824;2023-03-12T08:42:03;4.38;;;2.65;;
48526;SDS011;34317;51.660;5.824;2023-03-12T08:44:31;8.15;;;3.00;;
48526;SDS011;34317;51.660;5.824;2023-03-12T08:46:58;5.97;;;3.20;;
48526;SDS011;34317;51.660;5.824;2023-03-12T08:49:25;6.55;;;3.28;;
48526;SDS011;34317;51.660;5.824;2023-03-12T08:51:52;6.53;;;3.20;;
48526;SDS011;34317;51.660;5.824;2023-03-12T08:54:19;4.30;;;2.90;;
48526;SDS011;34317;51.660;5.824;2023-03-12T08:56:50;7.00;;;3.15;;
48526;SDS011;34317;51.660;5.824;2023-03-12T08:59:18;4.63;;;3.05;;
48526;SDS011;34317;51.660;5.824;2023-03-12T09:01:46;7.00;;;3.40;;
48526;SDS011;34317;51.660;5.824;2023-03-12T09:04:13;3.58;;;2.83;;
48526;SDS011;34317;51.660;5.824;2023-03-12T09:06:42;7.93;;;3.53;;
48526;SDS011;34317;51.660;5.824;2023-03-12T09:09:09;5.60;;;3.30;;
48526;SDS011;34317;51.660;5.824;2023-03-12T09:11:36;6.07;;;3.60;;
48526;SDS011;34317;51.660;5.824;2023-03-12T09:14:05;7.43;;;3.80;;
48526;SDS011;34317;51.660;5.824;2023-03-12T09:16:52;6.43;;;3.58;;
48526;SDS011;34317;51.660;5.824;2023-03-12T09:19:20;5.32;;;3.22;;
48526;SDS011;34317;51.660;5.824;2023-03-12T09:21:47;7.78;;;3.70;;
48526;SDS011;34317;51.660;5.824;2023-03-12T09:24:14;5.97;;;3.88;;
48526;SDS011;34317;51.660;5.824;2023-03-12T09:26:41;8.70;;;3.85;;
48526;SDS011;34317;51.660;5.824;2023-03-12T09:29:08;8.10;;;3.95;;
48526;SDS011;34317;51.660;5.824;2023-03-12T09:31:35;7.03;;;4.18;;
48526;SDS011;34317;51.660;5.824;2023-03-12T09:34:03;7.28;;;4.25;;
48526;SDS011;34317;51.660;5.824;2023-03-12T09:36:30;7.35;;;4.53;;
48526;SDS011;34317;51.660;5.824;2023-03-12T09:38:59;10.18;;;4.82;;
48526;SDS011;34317;51.660;5.824;2023-03-12T09:41:30;8.98;;;4.60;;
48526;SDS011;34317;51.660;5.824;2023-03-12T09:47:02;12.40;;;5.50;;
48526;SDS011;34317;51.660;5.824;2023-03-12T09:49:39;8.60;;;4.93;;
48526;SDS011;34317;51.660;5.824;2023-03-12T09:52:17;8.50;;;5.30;;
48526;SDS011;34317;51.660;5.824;2023-03-12T09:57:47;10.43;;;5.80;;
48526;SDS011;34317;51.660;5.824;2023-03-12T10:00:18;12.57;;;5.85;;
48526;SDS011;34317;51.660;5.824;2023-03-12T10:11:23;11.45;;;6.32;;
48526;SDS011;34317;51.660;5.824;2023-03-12T10:14:09;14.43;;;6.50;;
48526;SDS011;34317;51.660;5.824;2023-03-12T10:19:47;14.45;;;7.00;;
48526;SDS011;34317;51.660;5.824;2023-03-12T10:22:37;14.02;;;7.50;;
48526;SDS011;34317;51.660;5.824;2023-03-12T10:25:31;18.60;;;7.82;;
48526;SDS011;34317;51.660;5.824;2023-03-12T10:28:15;14.52;;;7.72;;
48526;SDS011;34317;51.660;5.824;2023-03-12T10:30:47;16.85;;;8.20;;
48526;SDS011;34317;51.660;5.824;2023-03-12T10:33:19;14.20;;;7.32;;
48526;SDS011;34317;51.660;5.824;2023-03-12T10:35:50;15.82;;;8.02;;
48526;SDS011;34317;51.660;5.824;2023-03-12T10:38:24;15.50;;;8.02;;
48526;SDS011;34317;51.660;5.824;2023-03-12T10:40:55;16.08;;;8.07;;
48526;SDS011;34317;51.660;5.824;2023-03-12T10:43:22;18.75;;;8.80;;
48526;SDS011;34317;51.660;5.824;2023-03-12T10:45:58;16.48;;;8.40;;
48526;SDS011;34317;51.660;5.824;2023-03-12T10:48:31;15.93;;;8.45;;
48526;SDS011;34317;51.660;5.824;2023-03-12T10:51:01;15.93;;;8.50;;
48526;SDS011;34317;51.660;5.824;2023-03-12T10:53:31;14.00;;;7.95;;
48526;SDS011;34317;51.660;5.824;2023-03-12T10:56:08;19.70;;;7.95;;
48526;SDS011;34317;51.660;5.824;2023-03-12T10:58:43;18.35;;;8.35;;
48526;SDS011;34317;51.660;5.824;2023-03-12T11:01:19;16.33;;;7.97;;
48526;SDS011;34317;51.660;5.824;2023-03-12T11:03:49;17.08;;;8.55;;
48526;SDS011;34317;51.660;5.824;2023-03-12T11:06:35;16.55;;;8.38;;
48526;SDS011;34317;51.660;5.824;2023-03-12T11:09:04;20.48;;;9.07;;
48526;SDS011;34317;51.660;5.824;2023-03-12T11:11:46;17.80;;;8.75;;
48526;SDS011;34317;51.660;5.824;2023-03-12T11:16:46;16.00;;;8.38;;
48526;SDS011;34317;51.660;5.824;2023-03-12T11:19:14;16.15;;;7.85;;
48526;SDS011;34317;51.660;5.824;2023-03-12T11:21:54;16.67;;;7.97;;
48526;SDS011;34317;51.660;5.824;2023-03-12T11:24:23;18.38;;;8.32;;
48526;SDS011;34317;51.660;5.824;2023-03-12T11:26:51;17.25;;;7.82;;
48526;SDS011;34317;51.660;5.824;2023-03-12T11:29:42;15.00;;;7.28;;
48526;SDS011;34317;51.660;5.824;2023-03-12T11:32:16;14.82;;;7.30;;
48526;SDS011;34317;51.660;5.824;2023-03-12T11:35:11;18.63;;;7.78;;
48526;SDS011;34317;51.660;5.824;2023-03-12T11:37:50;13.18;;;6.82;;
48526;SDS011;34317;51.660;5.824;2023-03-12T11:40:59;15.77;;;6.60;;
48526;SDS011;34317;51.660;5.824;2023-03-12T11:49:13;12.80;;;6.03;;
48526;SDS011;34317;51.660;5.824;2023-03-12T11:52:01;13.55;;;6.50;;
48526;SDS011;34317;51.660;5.824;2023-03-12T11:57:46;21.15;;;7.10;;
48526;SDS011;34317;51.660;5.824;2023-03-12T12:17:09;19.27;;;7.07;;
48526;SDS011;34317;51.660;5.824;2023-03-12T12:31:34;17.02;;;6.78;;
48526;SDS011;34317;51.660;5.824;2023-03-12T12:36:59;23.55;;;6.38;;
48526;SDS011;34317;51.660;5.824;2023-03-12T12:40:04;22.00;;;6.93;;
48526;SDS011;34317;51.660;5.824;2023-03-12T12:42:50;18.58;;;6.22;;
48526;SDS011;34317;51.660;5.824;2023-03-12T12:45:22;18.77;;;6.53;;
48526;SDS011;34317;51.660;5.824;2023-03-12T12:47:56;19.67;;;5.93;;
48526;SDS011;34317;51.660;5.824;2023-03-12T12:50:28;18.52;;;4.55;;
48526;SDS011;34317;51.660;5.824;2023-03-12T12:53:04;13.88;;;4.50;;
48526;SDS011;34317;51.660;5.824;2023-03-12T12:55:44;16.52;;;4.60;;
48526;SDS011;34317;51.660;5.824;2023-03-12T12:58:20;18.33;;;4.68;;
48526;SDS011;34317;51.660;5.824;2023-03-12T13:00:57;23.65;;;4.55;;
48526;SDS011;34317;51.660;5.824;2023-03-12T13:03:26;19.63;;;4.88;;
48526;SDS011;34317;51.660;5.824;2023-03-12T13:06:01;15.90;;;4.70;;
48526;SDS011;34317;51.660;5.824;2023-03-12T13:13:49;22.08;;;4.82;;
48526;SDS011;34317;51.660;5.824;2023-03-12T13:16:37;15.68;;;4.97;;
48526;SDS011;34317;51.660;5.824;2023-03-12T13:29:50;18.23;;;5.32;;
48526;SDS011;34317;51.660;5.824;2023-03-12T13:35:06;15.77;;;5.15;;
48526;SDS011;34317;51.660;5.824;2023-03-12T13:43:14;23.75;;;5.65;;
48526;SDS011;34317;51.660;5.824;2023-03-12T13:46:40;17.75;;;4.95;;
48526;SDS011;34317;51.660;5.824;2023-03-12T13:48:56;17.20;;;4.88;;
48526;SDS011;34317;51.660;5.824;2023-03-12T13:51:25;17.05;;;4.57;;
48526;SDS011;34317;51.660;5.824;2023-03-12T13:53:54;16.73;;;4.63;;
48526;SDS011;34317;51.660;5.824;2023-03-12T13:56:26;16.52;;;4.65;;
48526;SDS011;34317;51.660;5.824;2023-03-12T13:58:56;17.27;;;3.55;;
48526;SDS011;34317;51.660;5.824;2023-03-12T14:01:27;16.70;;;3.38;;
48526;SDS011;34317;51.660;5.824;2023-03-12T14:03:58;12.88;;;3.20;;
48526;SDS011;34317;51.660;5.824;2023-03-12T14:06:29;17.48;;;3.70;;
48526;SDS011;34317;51.660;5.824;2023-03-12T14:17:29;16.27;;;3.45;;
48526;SDS011;34317;51.660;5.824;2023-03-12T14:19:59;17.60;;;2.97;;
48526;SDS011;34317;51.660;5.824;2023-03-12T14:22:28;21.77;;;3.65;;
48526;SDS011;34317;51.660;5.824;2023-03-12T14:25:00;15.65;;;3.22;;
48526;SDS011;34317;51.660;5.824;2023-03-12T14:27:38;20.33;;;3.83;;
48526;SDS011;34317;51.660;5.824;2023-03-12T14:30:21;16.80;;;3.63;;
48526;SDS011;34317;51.660;5.824;2023-03-12T14:32:58;16.30;;;3.17;;
48526;SDS011;34317;51.660;5.824;2023-03-12T14:35:31;16.35;;;2.90;;
48526;SDS011;34317;51.660;5.824;2023-03-12T14:38:05;18.65;;;3.25;;
48526;SDS011;34317;51.660;5.824;2023-03-12T14:40:40;17.52;;;3.58;;
48526;SDS011;34317;51.660;5.824;2023-03-12T14:43:49;19.20;;;3.70;;
48526;SDS011;34317;51.660;5.824;2023-03-12T14:46:12;22.00;;;4.00;;
48526;SDS011;34317;51.660;5.824;2023-03-12T14:48:47;16.77;;;3.90;;
48526;SDS011;34317;51.660;5.824;2023-03-12T14:51:29;18.15;;;3.42;;
48526;SDS011;34317;51.660;5.824;2023-03-12T14:54:01;20.10;;;3.75;;
48526;SDS011;34317;51.660;5.824;2023-03-12T14:56:33;17.98;;;4.20;;
48526;SDS011;34317;51.660;5.824;2023-03-12T14:59:04;15.05;;;2.83;;
48526;SDS011;34317;51.660;5.824;2023-03-12T15:01:47;14.10;;;3.38;;
48526;SDS011;34317;51.660;5.824;2023-03-12T15:04:15;14.73;;;3.38;;
48526;SDS011;34317;51.660;5.824;2023-03-12T15:06:51;13.27;;;3.45;;
48526;SDS011;34317;51.660;5.824;2023-03-12T15:09:22;21.33;;;4.13;;
48526;SDS011;34317;51.660;5.824;2023-03-12T15:12:14;20.48;;;3.30;;
48526;SDS011;34317;51.660;5.824;2023-03-12T15:14:44;20.38;;;4.38;;
48526;SDS011;34317;51.660;5.824;2023-03-12T15:17:17;22.25;;;4.07;;
48526;SDS011;34317;51.660;5.824;2023-03-12T15:19:46;21.77;;;4.00;;
48526;SDS011;34317;51.660;5.824;2023-03-12T15:22:24;15.40;;;3.55;;
48526;SDS011;34317;51.660;5.824;2023-03-12T15:24:53;19.85;;;4.32;;
48526;SDS011;34317;51.660;5.824;2023-03-12T15:29:51;22.95;;;4.28;;
48526;SDS011;34317;51.660;5.824;2023-03-12T15:32:19;21.08;;;4.13;;
48526;SDS011;34317;51.660;5.824;2023-03-12T15:34:51;17.48;;;3.97;;
48526;SDS011;34317;51.660;5.824;2023-03-12T15:37:27;21.52;;;4.53;;
48526;SDS011;34317;51.660;5.824;2023-03-12T15:40:15;20.27;;;4.10;;
48526;SDS011;34317;51.660;5.824;2023-03-12T15:42:58;25.67;;;4.43;;
48526;SDS011;34317;51.660;5.824;2023-03-12T15:45:36;16.90;;;3.65;;
48526;SDS011;34317;51.660;5.824;2023-03-12T15:48:17;19.92;;;4.35;;
48526;SDS011;34317;51.660;5.824;2023-03-12T15:50:47;21.23;;;3.70;;
48526;SDS011;34317;51.660;5.824;2023-03-12T15:56:03;17.48;;;3.38;;
48526;SDS011;34317;51.660;5.824;2023-03-12T15:58:58;18.13;;;3.85;;
48526;SDS011;34317;51.660;5.824;2023-03-12T16:01:47;21.02;;;3.72;;
48526;SDS011;34317;51.660;5.824;2023-03-12T16:04:16;18.70;;;3.28;;
48526;SDS011;34317;51.660;5.824;2023-03-12T16:06:44;15.27;;;3.22;;
48526;SDS011;34317;51.660;5.824;2023-03-12T16:09:18;19.20;;;3.70;;
48526;SDS011;34317;51.660;5.824;2023-03-12T16:11:48;22.73;;;3.88;;
48526;SDS011;34317;51.660;5.824;2023-03-12T16:14:17;17.33;;;3.47;;
48526;SDS011;34317;51.660;5.824;2023-03-12T16:16:48;19.17;;;3.83;;
48526;SDS011;34317;51.660;5.824;2023-03-12T16:19:16;16.85;;;3.53;;
48526;SDS011;34317;51.660;5.824;2023-03-12T16:21:46;20.92;;;3.70;;
48526;SDS011;34317;51.660;5.824;2023-03-12T16:24:14;17.27;;;3.80;;
48526;SDS011;34317;51.660;5.824;2023-03-12T16:26:45;21.75;;;3.80;;
48526;SDS011;34317;51.660;5.824;2023-03-12T16:29:20;18.25;;;3.40;;
48526;SDS011;34317;51.660;5.824;2023-03-12T16:31:54;19.63;;;4.07;;
48526;SDS011;34317;51.660;5.824;2023-03-12T16:34:21;17.73;;;3.63;;
48526;SDS011;34317;51.660;5.824;2023-03-12T16:36:49;19.73;;;4.20;;
48526;SDS011;34317;51.660;5.824;2023-03-12T16:39:16;24.08;;;4.10;;
48526;SDS011;34317;51.660;5.824;2023-03-12T16:41:45;23.33;;;4.63;;
48526;SDS011;34317;51.660;5.824;2023-03-12T16:44:13;18.85;;;5.07;;
48526;SDS011;34317;51.660;5.824;2023-03-12T16:46:43;21.13;;;4.25;;
48526;SDS011;34317;51.660;5.824;2023-03-12T16:49:13;26.40;;;4.72;;
48526;SDS011;34317;51.660;5.824;2023-03-12T16:51:41;18.55;;;4.30;;
48526;SDS011;34317;51.660;5.824;2023-03-12T16:54:08;19.98;;;4.45;;
48526;SDS011;34317;51.660;5.824;2023-03-12T16:56:41;16.45;;;4.32;;